sensor_id;sensor_type;location;lat;lon;timestamp;P1;durP1;ratioP1;P2;durP2;ratioP2
25913;SDS011;13718;50.922;5.346;2023-06-22T00:00:52;22.55;;;5.90;;
25913;SDS011;13718;50.922;5.346;2023-06-22T00:03:18;23.08;;;6.07;;
25913;SDS011;13718;50.922;5.346;2023-06-22T00:05:46;19.98;;;5.78;;
25913;SDS011;13718;50.922;5.346;2023-06-22T00:08:12;21.00;;;6.35;;
25913;SDS011;13718;50.922;5.346;2023-06-22T00:10:38;26.73;;;5.97;;
25913;SDS011;13718;50.922;5.346;2023-06-22T00:13:04;22.67;;;5.82;;
25913;SDS011;13718;50.922;5.346;2023-06-22T00:15:30;24.58;;;6.93;;
25913;SDS011;13718;50.922;5.346;2023-06-22T00:17:56;21.08;;;5.95;;
25913;SDS011;13718;50.922;5.346;2023-06-22T00:20:22;23.88;;;6.35;;
25913;SDS011;13718;50.922;5.346;2023-06-22T00:22:49;25.35;;;6.97;;
25913;SDS011;13718;50.922;5.346;2023-06-22T00:25:15;20.02;;;5.40;;
25913;SDS011;13718;50.922;5.346;2023-06-22T00:27:40;21.75;;;5.78;;
25913;SDS011;13718;50.922;5.346;2023-06-22T00:30:06;20.38;;;5.88;;
25913;SDS011;13718;50.922;5.346;2023-06-22T00:32:32;20.13;;;6.18;;
25913;SDS011;13718;50.922;5.346;2023-06-22T00:34:57;20.88;;;6.20;;
25913;SDS011;13718;50.922;5.346;2023-06-22T00:37:23;18.52;;;5.82;;
25913;SDS011;13718;50.922;5.346;2023-06-22T00:39:50;23.40;;;5.45;;
25913;SDS011;13718;50.922;5.346;2023-06-22T00:42:16;18.13;;;5.53;;
25913;SDS011;13718;50.922;5.346;2023-06-22T00:44:42;24.98;;;6.15;;
25913;SDS011;13718;50.922;5.346;2023-06-22T00:47:10;22.77;;;6.25;;
25913;SDS011;13718;50.922;5.346;2023-06-22T00:49:37;25.20;;;6.45;;
25913;SDS011;13718;50.922;5.346;2023-06-22T00:52:03;31.23;;;6.72;;
25913;SDS011;13718;50.922;5.346;2023-06-22T00:54:34;23.67;;;6.75;;
25913;SDS011;13718;50.922;5.346;2023-06-22T00:57:01;25.52;;;6.20;;
25913;SDS011;13718;50.922;5.346;2023-06-22T00:59:27;30.00;;;6.95;;
25913;SDS011;13718;50.922;5.346;2023-06-22T01:01:52;29.70;;;8.20;;
25913;SDS011;13718;50.922;5.346;2023-06-22T01:04:19;29.77;;;8.20;;
25913;SDS011;13718;50.922;5.346;2023-06-22T01:06:52;43.47;;;9.77;;
25913;SDS011;13718;50.922;5.346;2023-06-22T01:09:22;42.22;;;9.45;;
25913;SDS011;13718;50.922;5.346;2023-06-22T01:11:57;45.45;;;10.27;;
25913;SDS011;13718;50.922;5.346;2023-06-22T01:14:37;38.92;;;10.23;;
25913;SDS011;13718;50.922;5.346;2023-06-22T01:17:23;40.75;;;11.13;;
25913;SDS011;13718;50.922;5.346;2023-06-22T01:19:50;55.95;;;10.63;;
25913;SDS011;13718;50.922;5.346;2023-06-22T01:22:25;45.40;;;10.52;;
25913;SDS011;13718;50.922;5.346;2023-06-22T01:25:09;45.40;;;12.18;;
25913;SDS011;13718;50.922;5.346;2023-06-22T01:30:42;48.08;;;10.68;;
25913;SDS011;13718;50.922;5.346;2023-06-22T01:33:10;52.22;;;11.32;;
25913;SDS011;13718;50.922;5.346;2023-06-22T01:35:38;52.25;;;11.27;;
25913;SDS011;13718;50.922;5.346;2023-06-22T01:38:04;50.85;;;10.68;;
25913;SDS011;13718;50.922;5.346;2023-06-22T01:40:30;51.78;;;11.38;;
25913;SDS011;13718;50.922;5.346;2023-06-22T01:42:59;56.00;;;10.90;;
25913;SDS011;13718;50.922;5.346;2023-06-22T01:45:26;48.88;;;10.88;;
25913;SDS011;13718;50.922;5.346;2023-06-22T01:47:52;49.92;;;10.48;;
25913;SDS011;13718;50.922;5.346;2023-06-22T01:50:19;44.88;;;11.45;;
25913;SDS011;13718;50.922;5.346;2023-06-22T01:52:46;39.83;;;9.68;;
25913;SDS011;13718;50.922;5.346;2023-06-22T01:55:11;45.17;;;10.90;;
25913;SDS011;13718;50.922;5.346;2023-06-22T01:57:37;41.80;;;10.55;;
25913;SDS011;13718;50.922;5.346;2023-06-22T02:02:39;46.22;;;11.45;;
25913;SDS011;13718;50.922;5.346;2023-06-22T02:05:18;40.63;;;10.68;;
25913;SDS011;13718;50.922;5.346;2023-06-22T02:07:46;44.95;;;10.70;;
25913;SDS011;13718;50.922;5.346;2023-06-22T02:10:20;40.60;;;10.60;;
25913;SDS011;13718;50.922;5.346;2023-06-22T02:12:48;37.10;;;10.40;;
25913;SDS011;13718;50.922;5.346;2023-06-22T02:15:15;44.70;;;11.48;;
25913;SDS011;13718;50.922;5.346;2023-06-22T02:17:42;43.03;;;10.93;;
25913;SDS011;13718;50.922;5.346;2023-06-22T02:20:12;47.67;;;12.40;;
25913;SDS011;13718;50.922;5.346;2023-06-22T02:22:38;37.15;;;11.32;;
25913;SDS011;13718;50.922;5.346;2023-06-22T02:25:04;40.35;;;11.48;;
25913;SDS011;13718;50.922;5.346;2023-06-22T02:27:29;36.33;;;11.00;;
25913;SDS011;13718;50.922;5.346;2023-06-22T02:29:55;33.00;;;10.93;;
25913;SDS011;13718;50.922;5.346;2023-06-22T02:32:21;29.45;;;10.75;;
25913;SDS011;13718;50.922;5.346;2023-06-22T02:34:47;31.27;;;11.02;;
25913;SDS011;13718;50.922;5.346;2023-06-22T02:37:13;29.30;;;11.30;;
25913;SDS011;13718;50.922;5.346;2023-06-22T02:39:39;38.95;;;12.38;;
25913;SDS011;13718;50.922;5.346;2023-06-22T02:42:05;35.13;;;12.27;;
25913;SDS011;13718;50.922;5.346;2023-06-22T02:44:31;31.50;;;12.45;;
25913;SDS011;13718;50.922;5.346;2023-06-22T02:46:57;28.38;;;12.00;;
25913;SDS011;13718;50.922;5.346;2023-06-22T02:49:23;29.52;;;12.52;;
25913;SDS011;13718;50.922;5.346;2023-06-22T02:51:48;25.90;;;12.30;;
25913;SDS011;13718;50.922;5.346;2023-06-22T02:54:15;29.17;;;13.07;;
25913;SDS011;13718;50.922;5.346;2023-06-22T02:56:41;34.03;;;13.63;;
25913;SDS011;13718;50.922;5.346;2023-06-22T02:59:09;25.08;;;12.52;;
25913;SDS011;13718;50.922;5.346;2023-06-22T03:01:36;28.83;;;13.55;;
25913;SDS011;13718;50.922;5.346;2023-06-22T03:04:05;29.00;;;13.85;;
25913;SDS011;13718;50.922;5.346;2023-06-22T03:06:32;26.15;;;13.88;;
25913;SDS011;13718;50.922;5.346;2023-06-22T03:09:01;31.48;;;14.55;;
25913;SDS011;13718;50.922;5.346;2023-06-22T03:11:29;29.80;;;14.33;;
25913;SDS011;13718;50.922;5.346;2023-06-22T03:16:26;26.70;;;14.48;;
25913;SDS011;13718;50.922;5.346;2023-06-22T03:18:52;25.77;;;14.80;;
25913;SDS011;13718;50.922;5.346;2023-06-22T03:21:22;26.77;;;15.40;;
25913;SDS011;13718;50.922;5.346;2023-06-22T03:23:48;29.25;;;14.57;;
25913;SDS011;13718;50.922;5.346;2023-06-22T03:26:16;31.08;;;17.13;;
25913;SDS011;13718;50.922;5.346;2023-06-22T03:28:42;24.80;;;15.38;;
25913;SDS011;13718;50.922;5.346;2023-06-22T03:31:08;27.95;;;15.88;;
25913;SDS011;13718;50.922;5.346;2023-06-22T03:33:34;27.80;;;15.80;;
25913;SDS011;13718;50.922;5.346;2023-06-22T03:35:59;30.95;;;17.02;;
25913;SDS011;13718;50.922;5.346;2023-06-22T03:38:25;28.83;;;16.55;;
25913;SDS011;13718;50.922;5.346;2023-06-22T03:40:51;30.45;;;17.10;;
25913;SDS011;13718;50.922;5.346;2023-06-22T03:43:16;28.08;;;17.08;;
25913;SDS011;13718;50.922;5.346;2023-06-22T03:45:42;27.02;;;17.00;;
25913;SDS011;13718;50.922;5.346;2023-06-22T03:48:10;31.58;;;17.80;;
25913;SDS011;13718;50.922;5.346;2023-06-22T03:50:36;28.58;;;17.35;;
25913;SDS011;13718;50.922;5.346;2023-06-22T03:53:01;32.00;;;17.23;;
25913;SDS011;13718;50.922;5.346;2023-06-22T03:55:27;29.00;;;17.15;;
25913;SDS011;13718;50.922;5.346;2023-06-22T03:57:53;26.20;;;17.88;;
25913;SDS011;13718;50.922;5.346;2023-06-22T04:00:21;27.45;;;17.67;;
25913;SDS011;13718;50.922;5.346;2023-06-22T04:02:48;27.70;;;17.85;;
25913;SDS011;13718;50.922;5.346;2023-06-22T04:05:13;28.17;;;18.05;;
25913;SDS011;13718;50.922;5.346;2023-06-22T04:07:39;27.40;;;17.67;;
25913;SDS011;13718;50.922;5.346;2023-06-22T04:10:05;29.25;;;17.88;;
25913;SDS011;13718;50.922;5.346;2023-06-22T04:12:30;25.05;;;16.23;;
25913;SDS011;13718;50.922;5.346;2023-06-22T04:14:56;26.13;;;16.35;;
25913;SDS011;13718;50.922;5.346;2023-06-22T04:17:22;26.50;;;17.55;;
25913;SDS011;13718;50.922;5.346;2023-06-22T04:19:49;30.10;;;19.65;;
25913;SDS011;13718;50.922;5.346;2023-06-22T04:22:15;32.67;;;19.05;;
25913;SDS011;13718;50.922;5.346;2023-06-22T04:24:41;34.38;;;19.67;;
25913;SDS011;13718;50.922;5.346;2023-06-22T04:27:07;31.30;;;20.45;;
25913;SDS011;13718;50.922;5.346;2023-06-22T04:29:32;32.50;;;19.80;;
25913;SDS011;13718;50.922;5.346;2023-06-22T04:31:58;32.28;;;19.70;;
25913;SDS011;13718;50.922;5.346;2023-06-22T04:34:27;31.70;;;20.90;;
25913;SDS011;13718;50.922;5.346;2023-06-22T04:36:53;33.97;;;21.42;;
25913;SDS011;13718;50.922;5.346;2023-06-22T04:39:19;34.33;;;21.52;;
25913;SDS011;13718;50.922;5.346;2023-06-22T04:41:45;35.55;;;22.42;;
25913;SDS011;13718;50.922;5.346;2023-06-22T04:44:14;39.90;;;23.77;;
25913;SDS011;13718;50.922;5.346;2023-06-22T04:46:50;35.78;;;23.65;;
25913;SDS011;13718;50.922;5.346;2023-06-22T04:49:24;34.58;;;25.38;;
25913;SDS011;13718;50.922;5.346;2023-06-22T04:51:58;40.05;;;27.15;;
25913;SDS011;13718;50.922;5.346;2023-06-22T04:54:24;44.42;;;28.23;;
25913;SDS011;13718;50.922;5.346;2023-06-22T04:56:50;48.10;;;31.45;;
25913;SDS011;13718;50.922;5.346;2023-06-22T04:59:21;54.28;;;34.47;;
25913;SDS011;13718;50.922;5.346;2023-06-22T05:01:54;47.15;;;32.63;;
25913;SDS011;13718;50.922;5.346;2023-06-22T05:04:21;45.40;;;30.30;;
25913;SDS011;13718;50.922;5.346;2023-06-22T05:06:50;47.92;;;31.42;;
25913;SDS011;13718;50.922;5.346;2023-06-22T05:09:16;47.55;;;32.50;;
25913;SDS011;13718;50.922;5.346;2023-06-22T05:11:42;54.22;;;35.42;;
25913;SDS011;13718;50.922;5.346;2023-06-22T05:14:09;61.15;;;38.22;;
25913;SDS011;13718;50.922;5.346;2023-06-22T05:16:34;67.32;;;41.80;;
25913;SDS011;13718;50.922;5.346;2023-06-22T05:19:01;67.60;;;42.35;;
25913;SDS011;13718;50.922;5.346;2023-06-22T05:21:28;67.88;;;42.00;;
25913;SDS011;13718;50.922;5.346;2023-06-22T05:23:54;58.70;;;37.20;;
25913;SDS011;13718;50.922;5.346;2023-06-22T05:26:21;52.15;;;36.85;;
25913;SDS011;13718;50.922;5.346;2023-06-22T05:28:47;58.72;;;35.60;;
25913;SDS011;13718;50.922;5.346;2023-06-22T05:31:13;58.17;;;35.90;;
25913;SDS011;13718;50.922;5.346;2023-06-22T05:33:40;54.83;;;36.80;;
25913;SDS011;13718;50.922;5.346;2023-06-22T05:36:06;58.60;;;38.08;;
25913;SDS011;13718;50.922;5.346;2023-06-22T05:38:32;63.72;;;39.05;;
25913;SDS011;13718;50.922;5.346;2023-06-22T05:40:58;62.75;;;39.83;;
25913;SDS011;13718;50.922;5.346;2023-06-22T05:43:23;68.82;;;39.80;;
25913;SDS011;13718;50.922;5.346;2023-06-22T05:45:49;62.42;;;40.78;;
25913;SDS011;13718;50.922;5.346;2023-06-22T05:48:15;62.83;;;41.10;;
25913;SDS011;13718;50.922;5.346;2023-06-22T05:50:40;70.28;;;42.20;;
25913;SDS011;13718;50.922;5.346;2023-06-22T05:53:07;70.55;;;41.45;;
25913;SDS011;13718;50.922;5.346;2023-06-22T05:55:32;69.20;;;43.30;;
25913;SDS011;13718;50.922;5.346;2023-06-22T05:57:58;62.78;;;41.15;;
25913;SDS011;13718;50.922;5.346;2023-06-22T06:00:23;63.50;;;41.33;;
25913;SDS011;13718;50.922;5.346;2023-06-22T06:02:49;66.80;;;40.40;;
25913;SDS011;13718;50.922;5.346;2023-06-22T06:05:15;64.88;;;40.05;;
25913;SDS011;13718;50.922;5.346;2023-06-22T06:07:42;70.30;;;43.65;;
25913;SDS011;13718;50.922;5.346;2023-06-22T06:10:08;62.13;;;40.17;;
25913;SDS011;13718;50.922;5.346;2023-06-22T06:12:34;69.57;;;40.97;;
25913;SDS011;13718;50.922;5.346;2023-06-22T06:15:00;79.30;;;41.33;;
25913;SDS011;13718;50.922;5.346;2023-06-22T06:17:26;81.20;;;43.20;;
25913;SDS011;13718;50.922;5.346;2023-06-22T06:19:52;71.80;;;41.75;;
25913;SDS011;13718;50.922;5.346;2023-06-22T06:22:17;71.40;;;42.40;;
25913;SDS011;13718;50.922;5.346;2023-06-22T06:24:44;66.65;;;41.08;;
25913;SDS011;13718;50.922;5.346;2023-06-22T06:27:10;74.05;;;39.65;;
25913;SDS011;13718;50.922;5.346;2023-06-22T06:29:36;67.45;;;40.50;;
25913;SDS011;13718;50.922;5.346;2023-06-22T06:32:02;62.33;;;38.67;;
25913;SDS011;13718;50.922;5.346;2023-06-22T06:34:27;61.30;;;38.15;;
25913;SDS011;13718;50.922;5.346;2023-06-22T06:36:53;66.43;;;38.80;;
25913;SDS011;13718;50.922;5.346;2023-06-22T06:39:18;69.93;;;39.05;;
25913;SDS011;13718;50.922;5.346;2023-06-22T06:41:45;60.20;;;36.95;;
25913;SDS011;13718;50.922;5.346;2023-06-22T06:44:11;58.88;;;37.65;;
25913;SDS011;13718;50.922;5.346;2023-06-22T06:46:36;56.85;;;36.85;;
25913;SDS011;13718;50.922;5.346;2023-06-22T06:49:02;53.85;;;35.85;;
25913;SDS011;13718;50.922;5.346;2023-06-22T06:51:28;52.65;;;36.42;;
25913;SDS011;13718;50.922;5.346;2023-06-22T06:53:54;50.53;;;36.95;;
25913;SDS011;13718;50.922;5.346;2023-06-22T06:56:19;56.65;;;37.65;;
25913;SDS011;13718;50.922;5.346;2023-06-22T06:58:45;56.08;;;36.25;;
25913;SDS011;13718;50.922;5.346;2023-06-22T07:01:11;48.33;;;34.30;;
25913;SDS011;13718;50.922;5.346;2023-06-22T07:03:38;48.60;;;34.33;;
25913;SDS011;13718;50.922;5.346;2023-06-22T07:06:03;49.50;;;33.72;;
25913;SDS011;13718;50.922;5.346;2023-06-22T07:08:29;46.40;;;32.58;;
25913;SDS011;13718;50.922;5.346;2023-06-22T07:10:55;46.42;;;31.95;;
25913;SDS011;13718;50.922;5.346;2023-06-22T07:13:22;41.00;;;28.75;;
25913;SDS011;13718;50.922;5.346;2023-06-22T07:15:47;39.65;;;28.27;;
25913;SDS011;13718;50.922;5.346;2023-06-22T07:18:13;36.40;;;28.85;;
25913;SDS011;13718;50.922;5.346;2023-06-22T07:20:38;34.63;;;26.55;;
25913;SDS011;13718;50.922;5.346;2023-06-22T07:23:07;35.63;;;26.08;;
25913;SDS011;13718;50.922;5.346;2023-06-22T07:25:32;35.40;;;24.70;;
25913;SDS011;13718;50.922;5.346;2023-06-22T07:28:04;41.42;;;26.27;;
25913;SDS011;13718;50.922;5.346;2023-06-22T07:30:32;36.55;;;25.92;;
25913;SDS011;13718;50.922;5.346;2023-06-22T07:32:59;37.88;;;26.40;;
25913;SDS011;13718;50.922;5.346;2023-06-22T07:35:29;35.72;;;26.42;;
25913;SDS011;13718;50.922;5.346;2023-06-22T07:37:56;35.97;;;26.48;;
25913;SDS011;13718;50.922;5.346;2023-06-22T07:40:21;39.35;;;27.75;;
25913;SDS011;13718;50.922;5.346;2023-06-22T07:42:47;45.22;;;28.38;;
25913;SDS011;13718;50.922;5.346;2023-06-22T07:45:17;45.50;;;29.02;;
25913;SDS011;13718;50.922;5.346;2023-06-22T07:47:43;42.92;;;28.98;;
25913;SDS011;13718;50.922;5.346;2023-06-22T07:50:09;37.70;;;28.77;;
25913;SDS011;13718;50.922;5.346;2023-06-22T07:52:35;35.53;;;28.67;;
25913;SDS011;13718;50.922;5.346;2023-06-22T07:55:00;43.38;;;30.00;;
25913;SDS011;13718;50.922;5.346;2023-06-22T07:57:27;42.35;;;30.08;;
25913;SDS011;13718;50.922;5.346;2023-06-22T07:59:58;42.42;;;29.13;;
25913;SDS011;13718;50.922;5.346;2023-06-22T08:02:29;39.28;;;29.70;;
25913;SDS011;13718;50.922;5.346;2023-06-22T08:04:55;40.45;;;30.63;;
25913;SDS011;13718;50.922;5.346;2023-06-22T08:07:20;44.15;;;31.67;;
25913;SDS011;13718;50.922;5.346;2023-06-22T08:09:47;41.40;;;29.83;;
25913;SDS011;13718;50.922;5.346;2023-06-22T08:12:13;41.00;;;30.15;;
25913;SDS011;13718;50.922;5.346;2023-06-22T08:14:39;39.38;;;28.33;;
25913;SDS011;13718;50.922;5.346;2023-06-22T08:17:06;38.60;;;27.05;;
25913;SDS011;13718;50.922;5.346;2023-06-22T08:19:32;37.80;;;26.67;;
25913;SDS011;13718;50.922;5.346;2023-06-22T08:21:58;34.85;;;26.15;;
25913;SDS011;13718;50.922;5.346;2023-06-22T08:24:23;32.78;;;25.77;;
25913;SDS011;13718;50.922;5.346;2023-06-22T08:26:51;40.28;;;28.15;;
25913;SDS011;13718;50.922;5.346;2023-06-22T08:29:16;34.78;;;27.02;;
25913;SDS011;13718;50.922;5.346;2023-06-22T08:31:42;33.92;;;26.80;;
25913;SDS011;13718;50.922;5.346;2023-06-22T08:34:08;35.75;;;26.52;;
25913;SDS011;13718;50.922;5.346;2023-06-22T08:36:33;38.05;;;26.35;;
25913;SDS011;13718;50.922;5.346;2023-06-22T08:39:06;32.25;;;24.50;;
25913;SDS011;13718;50.922;5.346;2023-06-22T08:41:33;33.00;;;25.63;;
25913;SDS011;13718;50.922;5.346;2023-06-22T08:43:59;35.83;;;26.13;;
25913;SDS011;13718;50.922;5.346;2023-06-22T08:46:24;38.58;;;25.77;;
25913;SDS011;13718;50.922;5.346;2023-06-22T08:48:55;34.35;;;25.60;;
25913;SDS011;13718;50.922;5.346;2023-06-22T08:51:24;33.72;;;23.77;;
25913;SDS011;13718;50.922;5.346;2023-06-22T08:53:50;33.45;;;25.35;;
25913;SDS011;13718;50.922;5.346;2023-06-22T08:56:15;35.97;;;24.23;;
25913;SDS011;13718;50.922;5.346;2023-06-22T08:58:41;30.02;;;24.05;;
25913;SDS011;13718;50.922;5.346;2023-06-22T09:01:06;32.45;;;24.02;;
25913;SDS011;13718;50.922;5.346;2023-06-22T09:03:32;30.98;;;23.95;;
25913;SDS011;13718;50.922;5.346;2023-06-22T09:06:01;33.58;;;25.73;;
25913;SDS011;13718;50.922;5.346;2023-06-22T09:08:26;36.55;;;25.02;;
25913;SDS011;13718;50.922;5.346;2023-06-22T09:10:52;32.70;;;24.63;;
25913;SDS011;13718;50.922;5.346;2023-06-22T09:13:18;32.78;;;25.58;;
25913;SDS011;13718;50.922;5.346;2023-06-22T09:15:43;35.08;;;25.13;;
25913;SDS011;13718;50.922;5.346;2023-06-22T09:18:12;35.00;;;25.23;;
25913;SDS011;13718;50.922;5.346;2023-06-22T09:20:38;32.65;;;26.00;;
25913;SDS011;13718;50.922;5.346;2023-06-22T09:23:04;32.85;;;25.48;;
25913;SDS011;13718;50.922;5.346;2023-06-22T09:25:30;38.45;;;25.90;;
25913;SDS011;13718;50.922;5.346;2023-06-22T09:27:55;30.77;;;24.40;;
25913;SDS011;13718;50.922;5.346;2023-06-22T09:30:21;34.20;;;26.38;;
25913;SDS011;13718;50.922;5.346;2023-06-22T09:32:47;33.90;;;26.13;;
25913;SDS011;13718;50.922;5.346;2023-06-22T09:35:12;36.80;;;26.60;;
25913;SDS011;13718;50.922;5.346;2023-06-22T09:37:38;35.10;;;26.90;;
25913;SDS011;13718;50.922;5.346;2023-06-22T09:40:05;36.58;;;26.52;;
25913;SDS011;13718;50.922;5.346;2023-06-22T09:42:36;33.72;;;26.42;;
25913;SDS011;13718;50.922;5.346;2023-06-22T09:45:02;33.88;;;26.58;;
25913;SDS011;13718;50.922;5.346;2023-06-22T09:47:28;41.33;;;29.45;;
25913;SDS011;13718;50.922;5.346;2023-06-22T09:49:54;36.33;;;27.83;;
25913;SDS011;13718;50.922;5.346;2023-06-22T09:52:20;37.83;;;28.70;;
25913;SDS011;13718;50.922;5.346;2023-06-22T09:54:47;36.47;;;28.30;;
25913;SDS011;13718;50.922;5.346;2023-06-22T09:57:13;40.10;;;30.40;;
25913;SDS011;13718;50.922;5.346;2023-06-22T09:59:38;40.08;;;30.17;;
25913;SDS011;13718;50.922;5.346;2023-06-22T10:02:07;41.55;;;31.02;;
25913;SDS011;13718;50.922;5.346;2023-06-22T10:04:33;41.28;;;32.22;;
25913;SDS011;13718;50.922;5.346;2023-06-22T10:07:02;43.30;;;33.88;;
25913;SDS011;13718;50.922;5.346;2023-06-22T10:09:27;46.63;;;36.03;;
25913;SDS011;13718;50.922;5.346;2023-06-22T10:11:53;50.45;;;35.55;;
25913;SDS011;13718;50.922;5.346;2023-06-22T10:14:19;52.90;;;38.97;;
25913;SDS011;13718;50.922;5.346;2023-06-22T10:16:44;48.95;;;38.45;;
25913;SDS011;13718;50.922;5.346;2023-06-22T10:19:10;58.22;;;41.63;;
25913;SDS011;13718;50.922;5.346;2023-06-22T10:21:36;60.20;;;43.78;;
25913;SDS011;13718;50.922;5.346;2023-06-22T10:24:01;62.25;;;45.03;;
25913;SDS011;13718;50.922;5.346;2023-06-22T10:26:34;69.97;;;47.88;;
25913;SDS011;13718;50.922;5.346;2023-06-22T10:29:01;69.60;;;49.72;;
25913;SDS011;13718;50.922;5.346;2023-06-22T10:31:27;70.88;;;49.97;;
25913;SDS011;13718;50.922;5.346;2023-06-22T10:33:53;79.97;;;53.78;;
25913;SDS011;13718;50.922;5.346;2023-06-22T10:36:19;79.80;;;56.05;;
25913;SDS011;13718;50.922;5.346;2023-06-22T10:38:46;91.40;;;57.88;;
25913;SDS011;13718;50.922;5.346;2023-06-22T10:41:13;82.90;;;57.83;;
25913;SDS011;13718;50.922;5.346;2023-06-22T10:43:38;89.40;;;60.28;;
25913;SDS011;13718;50.922;5.346;2023-06-22T10:46:04;93.97;;;59.80;;
25913;SDS011;13718;50.922;5.346;2023-06-22T10:48:31;95.97;;;60.50;;
25913;SDS011;13718;50.922;5.346;2023-06-22T10:50:56;92.45;;;61.35;;
25913;SDS011;13718;50.922;5.346;2023-06-22T10:53:22;95.32;;;62.13;;
25913;SDS011;13718;50.922;5.346;2023-06-22T10:55:48;90.40;;;59.40;;
25913;SDS011;13718;50.922;5.346;2023-06-22T10:58:17;87.55;;;58.72;;
25913;SDS011;13718;50.922;5.346;2023-06-22T11:00:44;85.57;;;57.35;;
25913;SDS011;13718;50.922;5.346;2023-06-22T11:03:10;86.75;;;59.60;;
25913;SDS011;13718;50.922;5.346;2023-06-22T11:05:35;81.78;;;55.92;;
25913;SDS011;13718;50.922;5.346;2023-06-22T11:08:01;85.07;;;57.10;;
25913;SDS011;13718;50.922;5.346;2023-06-22T11:10:26;83.85;;;56.78;;
25913;SDS011;13718;50.922;5.346;2023-06-22T11:12:52;93.40;;;61.30;;
25913;SDS011;13718;50.922;5.346;2023-06-22T11:15:18;96.45;;;61.38;;
25913;SDS011;13718;50.922;5.346;2023-06-22T11:17:44;89.75;;;60.90;;
25913;SDS011;13718;50.922;5.346;2023-06-22T11:20:10;91.07;;;59.38;;
25913;SDS011;13718;50.922;5.346;2023-06-22T11:22:37;90.15;;;59.50;;
25913;SDS011;13718;50.922;5.346;2023-06-22T11:25:04;86.97;;;56.90;;
25913;SDS011;13718;50.922;5.346;2023-06-22T11:27:30;76.25;;;54.40;;
25913;SDS011;13718;50.922;5.346;2023-06-22T11:29:56;76.32;;;52.38;;
25913;SDS011;13718;50.922;5.346;2023-06-22T11:32:22;78.88;;;54.03;;
25913;SDS011;13718;50.922;5.346;2023-06-22T11:34:48;74.75;;;52.65;;
25913;SDS011;13718;50.922;5.346;2023-06-22T11:37:13;79.03;;;54.67;;
25913;SDS011;13718;50.922;5.346;2023-06-22T11:39:40;68.47;;;49.08;;
25913;SDS011;13718;50.922;5.346;2023-06-22T11:42:06;67.38;;;48.20;;
25913;SDS011;13718;50.922;5.346;2023-06-22T11:44:33;65.97;;;48.30;;
25913;SDS011;13718;50.922;5.346;2023-06-22T11:46:58;66.53;;;47.60;;
25913;SDS011;13718;50.922;5.346;2023-06-22T11:49:25;69.47;;;49.42;;
25913;SDS011;13718;50.922;5.346;2023-06-22T11:51:51;71.90;;;50.47;;
25913;SDS011;13718;50.922;5.346;2023-06-22T11:54:17;69.28;;;51.28;;
25913;SDS011;13718;50.922;5.346;2023-06-22T11:56:43;73.57;;;51.42;;
25913;SDS011;13718;50.922;5.346;2023-06-22T11:59:08;78.88;;;51.60;;
25913;SDS011;13718;50.922;5.346;2023-06-22T12:01:34;74.97;;;51.92;;
25913;SDS011;13718;50.922;5.346;2023-06-22T12:04:00;76.60;;;52.60;;
25913;SDS011;13718;50.922;5.346;2023-06-22T12:06:25;73.38;;;52.35;;
25913;SDS011;13718;50.922;5.346;2023-06-22T12:08:51;75.80;;;53.25;;
25913;SDS011;13718;50.922;5.346;2023-06-22T12:11:16;77.60;;;53.45;;
25913;SDS011;13718;50.922;5.346;2023-06-22T12:13:42;78.60;;;55.40;;
25913;SDS011;13718;50.922;5.346;2023-06-22T12:16:07;81.68;;;56.80;;
25913;SDS011;13718;50.922;5.346;2023-06-22T12:18:33;90.43;;;59.95;;
25913;SDS011;13718;50.922;5.346;2023-06-22T12:20:59;89.00;;;59.78;;
25913;SDS011;13718;50.922;5.346;2023-06-22T12:23:24;90.40;;;60.00;;
25913;SDS011;13718;50.922;5.346;2023-06-22T12:25:50;91.18;;;60.88;;
25913;SDS011;13718;50.922;5.346;2023-06-22T12:28:16;95.82;;;61.83;;
25913;SDS011;13718;50.922;5.346;2023-06-22T12:30:41;99.85;;;62.38;;
25913;SDS011;13718;50.922;5.346;2023-06-22T12:33:07;98.13;;;62.85;;
25913;SDS011;13718;50.922;5.346;2023-06-22T12:35:33;100.00;;;66.18;;
25913;SDS011;13718;50.922;5.346;2023-06-22T12:37:59;100.10;;;64.85;;
25913;SDS011;13718;50.922;5.346;2023-06-22T12:40:24;94.57;;;63.13;;
25913;SDS011;13718;50.922;5.346;2023-06-22T12:42:50;104.68;;;67.55;;
25913;SDS011;13718;50.922;5.346;2023-06-22T12:45:15;106.70;;;65.50;;
25913;SDS011;13718;50.922;5.346;2023-06-22T12:47:41;102.40;;;67.75;;
25913;SDS011;13718;50.922;5.346;2023-06-22T12:50:08;109.10;;;68.05;;
25913;SDS011;13718;50.922;5.346;2023-06-22T12:52:35;110.70;;;70.07;;
25913;SDS011;13718;50.922;5.346;2023-06-22T12:55:04;110.88;;;71.82;;
25913;SDS011;13718;50.922;5.346;2023-06-22T12:57:30;109.95;;;69.45;;
25913;SDS011;13718;50.922;5.346;2023-06-22T12:59:55;111.90;;;70.10;;
25913;SDS011;13718;50.922;5.346;2023-06-22T13:02:23;104.65;;;67.20;;
25913;SDS011;13718;50.922;5.346;2023-06-22T13:04:49;101.55;;;65.05;;
25913;SDS011;13718;50.922;5.346;2023-06-22T13:07:14;104.40;;;66.95;;
25913;SDS011;13718;50.922;5.346;2023-06-22T13:09:40;103.00;;;62.10;;
25913;SDS011;13718;50.922;5.346;2023-06-22T13:12:05;100.07;;;64.38;;
25913;SDS011;13718;50.922;5.346;2023-06-22T13:14:32;100.63;;;63.65;;
25913;SDS011;13718;50.922;5.346;2023-06-22T13:16:57;105.47;;;67.93;;
25913;SDS011;13718;50.922;5.346;2023-06-22T13:19:23;108.18;;;65.43;;
25913;SDS011;13718;50.922;5.346;2023-06-22T13:21:49;101.22;;;60.97;;
25913;SDS011;13718;50.922;5.346;2023-06-22T13:24:15;101.22;;;58.28;;
25913;SDS011;13718;50.922;5.346;2023-06-22T13:26:41;91.32;;;56.60;;
25913;SDS011;13718;50.922;5.346;2023-06-22T13:29:07;105.70;;;57.63;;
25913;SDS011;13718;50.922;5.346;2023-06-22T13:31:32;93.97;;;57.03;;
25913;SDS011;13718;50.922;5.346;2023-06-22T13:33:58;92.78;;;55.38;;
25913;SDS011;13718;50.922;5.346;2023-06-22T13:36:24;85.15;;;52.42;;
25913;SDS011;13718;50.922;5.346;2023-06-22T13:38:50;86.50;;;51.60;;
25913;SDS011;13718;50.922;5.346;2023-06-22T13:41:15;91.03;;;50.83;;
25913;SDS011;13718;50.922;5.346;2023-06-22T13:43:41;76.20;;;47.08;;
25913;SDS011;13718;50.922;5.346;2023-06-22T13:46:07;76.82;;;46.30;;
25913;SDS011;13718;50.922;5.346;2023-06-22T13:48:33;83.70;;;47.80;;
25913;SDS011;13718;50.922;5.346;2023-06-22T13:50:58;76.55;;;45.22;;
25913;SDS011;13718;50.922;5.346;2023-06-22T13:53:24;81.30;;;47.25;;
25913;SDS011;13718;50.922;5.346;2023-06-22T13:55:51;76.20;;;46.88;;
25913;SDS011;13718;50.922;5.346;2023-06-22T13:58:16;90.47;;;48.75;;
25913;SDS011;13718;50.922;5.346;2023-06-22T14:00:44;82.43;;;48.85;;
25913;SDS011;13718;50.922;5.346;2023-06-22T14:03:10;87.55;;;49.58;;
25913;SDS011;13718;50.922;5.346;2023-06-22T14:05:36;83.43;;;50.58;;
25913;SDS011;13718;50.922;5.346;2023-06-22T14:08:01;91.05;;;52.20;;
25913;SDS011;13718;50.922;5.346;2023-06-22T14:10:27;91.68;;;53.00;;
25913;SDS011;13718;50.922;5.346;2023-06-22T14:12:52;95.70;;;55.30;;
25913;SDS011;13718;50.922;5.346;2023-06-22T14:15:18;98.38;;;55.67;;
25913;SDS011;13718;50.922;5.346;2023-06-22T14:17:44;93.97;;;55.13;;
25913;SDS011;13718;50.922;5.346;2023-06-22T14:20:09;99.88;;;55.85;;
25913;SDS011;13718;50.922;5.346;2023-06-22T14:22:35;95.53;;;55.78;;
25913;SDS011;13718;50.922;5.346;2023-06-22T14:25:01;91.57;;;55.05;;